Time;durP1;ratioP1;P1;durP2;ratioP2;P2;SDS_P1;SDS_P2;PMS_P1;PMS_P2;Temp;Humidity;BMP_temperature;BMP_pressure;BME280_temperature;BME280_humidity;BME280_pressure;Samples;Min_cycle;Max_cycle;Signal;HPM_P1;HPM_P2
2023/03/01 00:00:04;;;;;;;6.82;1.73;;;19.60;47.80;;;;;;5059499;28;20092;-64
2023/03/01 00:02:31;;;;;;;5.72;1.10;;;19.60;47.70;;;;;;5065006;28;20104;-64
2023/03/01 00:04:57;;;;;;;4.43;1.15;;;19.40;48.30;;;;;;5067884;28;20748;-67
2023/03/01 00:07:23;;;;;;;113.72;9.65;;;19.30;50.30;;;;;;5065126;28;20112;-65
2023/03/01 00:09:50;;;;;;;398.98;29.67;;;19.30;49.00;;;;;;5065686;28;20186;-65
2023/03/01 00:12:16;;;;;;;15.48;1.90;;;19.30;48.90;;;;;;5065011;28;20072;-67
2023/03/01 00:14:43;;;;;;;57.75;3.40;;;19.30;47.90;;;;;;5062373;28;20094;-64
2023/03/01 00:17:09;;;;;;;86.75;4.85;;;19.20;48.10;;;;;;5064125;28;20163;-67
2023/03/01 00:19:36;;;;;;;22.50;1.90;;;19.00;48.70;;;;;;5060954;28;20072;-66
2023/03/01 00:22:03;;;;;;;13.52;1.58;;;19.10;49.20;;;;;;5065226;28;20103;-68
2023/03/01 00:24:29;;;;;;;9.95;1.92;;;18.90;49.90;;;;;;5060838;28;20569;-66
2023/03/01 00:26:56;;;;;;;12.85;1.83;;;18.70;50.20;;;;;;5066648;28;20074;-66
2023/03/01 00:29:25;;;;;;;10.73;3.45;;;18.70;50.60;;;;;;5066710;28;20083;-65
2023/03/01 00:31:52;;;;;;;19.95;1.45;;;18.70;49.80;;;;;;5061061;28;20154;-66
2023/03/01 00:34:18;;;;;;;10.55;1.48;;;18.70;50.50;;;;;;5065458;28;20537;-69
2023/03/01 00:36:45;;;;;;;8.38;1.60;;;18.60;50.50;;;;;;5065662;28;20174;-70
2023/03/01 00:39:14;;;;;;;5.25;1.38;;;18.50;51.30;;;;;;5064928;28;20585;-67
2023/03/01 00:41:42;;;;;;;5.75;1.33;;;18.60;50.30;;;;;;5064133;28;20441;-68
2023/03/01 00:44:08;;;;;;;14.18;10.77;;;18.50;50.00;;;;;;5067457;28;20082;-68
2023/03/01 00:46:35;;;;;;;12.63;1.73;;;18.70;50.70;;;;;;5060448;28;20103;-67
2023/03/01 00:49:02;;;;;;;12.43;1.77;;;18.60;50.20;;;;;;5063466;28;20076;-66
2023/03/01 00:51:29;;;;;;;10.50;1.73;;;18.30;49.50;;;;;;5061316;28;20067;-68
2023/03/01 00:53:57;;;;;;;488.23;45.55;;;18.30;50.20;;;;;;5065430;28;20064;-69
2023/03/01 00:56:24;;;;;;;31.00;2.67;;;18.20;49.40;;;;;;5066709;28;20545;-67
2023/03/01 00:58:51;;;;;;;847.97;69.45;;;18.20;49.80;;;;;;5052156;28;20440;-67
2023/03/01 01:01:23;;;;;;;53.17;4.30;;;18.20;49.90;;;;;;5061654;28;20099;-70
2023/03/01 01:04:05;;;;;;;733.40;39.92;;;18.00;49.80;;;;;;5063914;28;20096;-69
2023/03/01 01:06:34;;;;;;;9.20;1.35;;;18.10;50.60;;;;;;5042069;28;20096;-68
2023/03/01 01:09:01;;;;;;;13.48;1.27;;;17.90;49.70;;;;;;5058839;28;20648;-69
2023/03/01 01:11:29;;;;;;;20.80;2.00;;;17.70;49.70;;;;;;5060560;28;20167;-72
2023/03/01 01:13:56;;;;;;;30.25;2.33;;;17.60;50.70;;;;;;5061934;28;20160;-66
2023/03/01 01:16:25;;;;;;;11.02;1.30;;;17.50;50.40;;;;;;5063745;28;20500;-70
2023/03/01 01:18:52;;;;;;;15.50;1.67;;;17.40;50.70;;;;;;5060165;28;20221;-67
2023/03/01 01:21:21;;;;;;;9.82;1.80;;;17.40;52.10;;;;;;5062681;28;20561;-66
2023/03/01 01:23:48;;;;;;;31.98;3.08;;;17.20;52.50;;;;;;5063755;28;20092;-65
2023/03/01 01:26:18;;;;;;;11.27;1.98;;;17.20;51.90;;;;;;5066071;28;20077;-67
2023/03/01 01:28:45;;;;;;;8.07;1.75;;;17.00;53.10;;;;;;5064678;28;20072;-69
2023/03/01 01:31:12;;;;;;;16.77;1.90;;;17.00;53.10;;;;;;5061338;28;20068;-69
2023/03/01 01:33:38;;;;;;;10.85;7.38;;;16.90;53.10;;;;;;5061151;28;20225;-67
2023/03/01 01:36:07;;;;;;;38.40;9.00;;;16.80;53.50;;;;;;5061405;28;20076;-68
2023/03/01 01:38:33;;;;;;;37.05;11.27;;;16.60;53.30;;;;;;5061762;28;20084;-69
2023/03/01 01:41:00;;;;;;;13.80;1.83;;;16.70;54.70;;;;;;5061892;28;20096;-68
2023/03/01 01:43:32;;;;;;;14.80;1.50;;;16.70;54.20;;;;;;5061614;28;20124;-67
2023/03/01 01:46:15;;;;;;;15.57;1.55;;;16.70;54.60;;;;;;5063327;28;20064;-67
2023/03/01 01:48:51;;;;;;;9.63;1.60;;;16.70;53.80;;;;;;5063914;28;20444;-66
2023/03/01 01:51:22;;;;;;;67.43;6.43;;;16.50;53.90;;;;;;5064197;28;20095;-68
2023/03/01 01:53:53;;;;;;;28.58;2.35;;;16.50;54.40;;;;;;5064230;28;20076;-68
2023/03/01 01:56:20;;;;;;;12.95;1.83;;;16.50;54.40;;;;;;5058660;28;20229;-67
2023/03/01 01:58:47;;;;;;;9.88;1.77;;;16.40;54.30;;;;;;5063193;28;20402;-70
2023/03/01 02:01:14;;;;;;;5.93;1.58;;;16.30;54.30;;;;;;5057800;28;20441;-68
2023/03/01 02:03:43;;;;;;;16.35;1.73;;;16.20;54.70;;;;;;5063597;28;20301;-69
2023/03/01 02:06:19;;;;;;;8.77;1.50;;;16.20;54.80;;;;;;5064890;28;20084;-68
2023/03/01 02:08:47;;;;;;;8.87;1.87;;;16.20;55.40;;;;;;5059827;28;20081;-67
2023/03/01 02:11:14;;;;;;;6.32;1.85;;;16.20;55.30;;;;;;5062472;28;20072;-66
2023/03/01 02:13:42;;;;;;;59.55;3.15;;;16.20;55.60;;;;;;5058001;28;20076;-66
2023/03/01 02:16:11;;;;;;;23.67;6.82;;;16.10;55.40;;;;;;5062015;28;20080;-68
2023/03/01 02:18:39;;;;;;;18.17;7.75;;;16.00;55.50;;;;;;5060305;28;20121;-67
2023/03/01 02:21:05;;;;;;;7.88;1.60;;;16.00;56.90;;;;;;5060573;28;20092;-67
2023/03/01 02:23:36;;;;;;;14.10;2.00;;;16.00;56.30;;;;;;5059831;28;20064;-72
2023/03/01 02:26:07;;;;;;;12.02;3.40;;;16.00;56.30;;;;;;5061745;28;20069;-66
2023/03/01 02:28:36;;;;;;;12.38;1.73;;;15.90;56.50;;;;;;5062477;28;20523;-66
2023/03/01 02:33:51;;;;;;;15.55;2.15;;;15.90;56.80;;;;;;5060479;28;20187;-66
2023/03/01 02:36:24;;;;;;;12.88;2.22;;;15.90;57.00;;;;;;5064008;28;20159;-67
2023/03/01 02:38:53;;;;;;;14.27;1.92;;;15.90;56.40;;;;;;5062882;28;20072;-62
2023/03/01 02:41:22;;;;;;;10.27;1.45;;;15.80;56.10;;;;;;5061342;28;20149;-65
2023/03/01 02:43:48;;;;;;;14.20;1.70;;;15.70;56.60;;;;;;5048692;28;20156;-67
2023/03/01 02:46:23;;;;;;;22.85;1.90;;;15.70;56.30;;;;;;5059032;28;20069;-67
2023/03/01 02:48:52;;;;;;;13.85;2.08;;;15.60;55.90;;;;;;5060599;28;20167;-65
2023/03/01 02:51:33;;;;;;;13.13;3.47;;;15.60;56.00;;;;;;5060118;28;20124;-66
2023/03/01 02:54:08;;;;;;;15.57;2.20;;;15.60;56.80;;;;;;5056449;28;20160;-64
2023/03/01 02:56:35;;;;;;;11.80;7.35;;;15.60;56.90;;;;;;5064855;28;20098;-70
2023/03/01 02:59:03;;;;;;;30.02;8.07;;;15.50;56.60;;;;;;5059860;28;20072;-64
2023/03/01 03:01:36;;;;;;;13.90;2.17;;;15.50;56.70;;;;;;5060736;28;20085;-64
2023/03/01 03:04:09;;;;;;;12.55;2.10;;;15.40;56.90;;;;;;5057722;28;20072;-62
2023/03/01 03:06:36;;;;;;;13.93;1.70;;;15.40;57.30;;;;;;5060618;28;20501;-64
2023/03/01 03:09:04;;;;;;;8.75;1.92;;;15.50;57.40;;;;;;5056334;28;20121;-64
2023/03/01 03:11:32;;;;;;;91.05;4.35;;;15.40;57.20;;;;;;5059922;28;20476;-67
2023/03/01 03:13:58;;;;;;;13.02;1.92;;;15.40;56.70;;;;;;5058438;28;20539;-60
2023/03/01 03:16:25;;;;;;;6.35;1.70;;;15.30;57.20;;;;;;5057022;28;20774;-62
2023/03/01 03:18:51;;;;;;;12.52;1.92;;;15.20;57.50;;;;;;5053901;28;20116;-63
2023/03/01 03:21:18;;;;;;;7.47;1.70;;;15.20;57.60;;;;;;5063309;28;20080;-64
2023/03/01 03:23:44;;;;;;;21.17;3.55;;;15.20;57.10;;;;;;5056753;28;20072;-65
2023/03/01 03:26:13;;;;;;;10.75;2.10;;;15.10;57.10;;;;;;5059524;28;20057;-66
2023/03/01 03:28:39;;;;;;;10.18;1.65;;;15.00;57.10;;;;;;5058471;28;20069;-64
2023/03/01 03:31:07;;;;;;;13.23;2.00;;;15.00;57.50;;;;;;5061985;28;20078;-65
2023/03/01 03:33:34;;;;;;;16.30;2.05;;;15.00;57.30;;;;;;5062377;28;20096;-62
2023/03/01 03:36:00;;;;;;;10.32;2.05;;;14.90;57.70;;;;;;5064659;28;20882;-64
2023/03/01 03:38:27;;;;;;;14.45;1.88;;;14.80;57.00;;;;;;5060668;28;20075;-65
2023/03/01 03:41:02;;;;;;;11.43;1.80;;;14.80;57.00;;;;;;5059685;28;20575;-65
2023/03/01 03:43:30;;;;;;;11.73;1.40;;;14.80;57.00;;;;;;5061372;28;20073;-65
2023/03/01 03:45:59;;;;;;;12.13;1.80;;;14.70;56.90;;;;;;5061169;28;20072;-66
2023/03/01 03:48:26;;;;;;;8.02;1.50;;;14.70;56.60;;;;;;5059404;28;20123;-65
2023/03/01 03:50:55;;;;;;;4.57;1.42;;;14.70;56.20;;;;;;5061369;28;20454;-65
2023/03/01 03:53:23;;;;;;;6.68;1.80;;;14.70;56.30;;;;;;5059865;28;20136;-65
2023/03/01 03:55:49;;;;;;;10.48;1.95;;;14.60;56.50;;;;;;5062856;28;20585;-65
2023/03/01 03:58:19;;;;;;;8.68;1.58;;;14.60;56.30;;;;;;5063079;28;20560;-66
2023/03/01 04:00:47;;;;;;;6.78;1.23;;;14.60;56.20;;;;;;5057408;28;20166;-62
2023/03/01 04:03:16;;;;;;;6.80;1.52;;;14.60;56.40;;;;;;5056788;28;20110;-65
2023/03/01 04:05:42;;;;;;;7.55;1.60;;;14.60;56.50;;;;;;5060077;28;20073;-65
2023/03/01 04:08:09;;;;;;;;;;;14.50;56.50;;;;;;5057950;28;20093;-65
2023/03/01 04:10:38;;;;;;;11.48;1.42;;;14.60;57.20;;;;;;5060367;28;19956;-66
2023/03/01 04:13:10;;;;;;;9.07;1.80;;;14.60;57.30;;;;;;5057862;28;20168;-65
2023/03/01 04:15:37;;;;;;;15.55;7.55;;;14.60;57.50;;;;;;5059940;28;20085;-66
2023/03/01 04:18:04;;;;;;;9.85;1.88;;;14.50;57.50;;;;;;5061256;28;20135;-65
2023/03/01 04:20:34;;;;;;;6.38;1.42;;;14.50;58.20;;;;;;5055893;28;20093;-66
2023/03/01 04:23:13;;;;;;;11.90;1.73;;;14.40;58.80;;;;;;5061652;28;20073;-65
2023/03/01 04:25:54;;;;;;;7.05;1.52;;;14.40;58.70;;;;;;5063241;28;20066;-63
2023/03/01 04:28:24;;;;;;;13.18;1.83;;;14.50;58.90;;;;;;5063745;28;20118;-66
2023/03/01 04:30:51;;;;;;;9.40;1.95;;;14.50;59.10;;;;;;5056390;28;20076;-65
2023/03/01 04:33:19;;;;;;;9.10;1.90;;;14.50;59.30;;;;;;5057101;28;20170;-65
2023/03/01 04:35:45;;;;;;;15.30;4.03;;;14.30;59.60;;;;;;5064833;28;20073;-66
2023/03/01 04:38:11;;;;;;;;;;;14.30;59.90;;;;;;5064673;28;20075;-65
2023/03/01 04:40:38;;;;;;;7.95;1.98;;;14.30;60.20;;;;;;5062300;28;20001;-65
2023/03/01 04:43:04;;;;;;;10.95;2.55;;;14.20;60.60;;;;;;5059694;28;20069;-67
2023/03/01 04:45:34;;;;;;;12.20;4.57;;;14.20;60.40;;;;;;5062314;28;20142;-66
2023/03/01 04:48:00;;;;;;;10.50;1.88;;;14.20;60.30;;;;;;5063874;28;20204;-66
2023/03/01 04:50:27;;;;;;;10.02;1.80;;;14.10;60.30;;;;;;5063093;28;20061;-66
2023/03/01 04:52:53;;;;;;;9.10;1.65;;;14.10;60.50;;;;;;5065265;28;20096;-66
2023/03/01 04:55:19;;;;;;;;;;;14.00;60.60;;;;;;5061017;28;20077;-66
2023/03/01 04:57:46;;;;;;;6.75;1.70;;;14.00;60.40;;;;;;5063440;28;19984;-68
2023/03/01 05:00:22;;;;;;;;;;;13.90;60.70;;;;;;5068699;28;20160;-67
2023/03/01 05:03:00;;;;;;;5.60;1.48;;;14.00;60.80;;;;;;5066000;28;19991;-65
2023/03/01 05:05:33;;;;;;;10.52;2.22;;;14.00;61.00;;;;;;5061814;28;20216;-66
2023/03/01 05:08:02;;;;;;;10.18;1.95;;;14.00;60.90;;;;;;5064295;28;20138;-66
2023/03/01 05:10:31;;;;;;;11.70;1.75;;;13.90;60.50;;;;;;5062192;28;20065;-66
2023/03/01 05:12:59;;;;;;;9.25;1.45;;;13.90;60.20;;;;;;5062776;28;20080;-65
2023/03/01 05:15:27;;;;;;;9.35;1.58;;;13.90;60.80;;;;;;5061537;28;20434;-68
2023/03/01 05:17:58;;;;;;;6.00;1.63;;;13.90;60.60;;;;;;5062769;28;20076;-65
2023/03/01 05:20:29;;;;;;;9.82;1.73;;;13.90;60.90;;;;;;5065060;28;20143;-65
2023/03/01 05:22:59;;;;;;;11.93;1.48;;;13.90;60.80;;;;;;5065355;28;20075;-65
2023/03/01 05:25:27;;;;;;;9.30;1.80;;;13.90;61.20;;;;;;5064552;28;20071;-66
2023/03/01 05:27:53;;;;;;;7.50;1.70;;;13.90;61.30;;;;;;5065709;28;20108;-66
2023/03/01 05:30:20;;;;;;;5.43;1.92;;;13.80;61.40;;;;;;5056651;28;20598;-66
2023/03/01 05:32:55;;;;;;;6.30;2.22;;;13.90;61.40;;;;;;5062636;28;20069;-66
2023/03/01 05:35:22;;;;;;;9.00;2.28;;;13.80;61.50;;;;;;5065243;28;20092;-66
2023/03/01 05:37:49;;;;;;;10.27;1.90;;;13.80;61.30;;;;;;5064684;28;20077;-67
2023/03/01 05:40:19;;;;;;;7.20;1.83;;;13.80;61.80;;;;;;5049837;28;20081;-67
2023/03/01 05:42:48;;;;;;;9.25;2.00;;;13.70;62.00;;;;;;5062416;28;20065;-64
2023/03/01 05:45:15;;;;;;;12.45;2.20;;;13.70;62.60;;;;;;5065799;28;20072;-64
2023/03/01 05:47:44;;;;;;;6.55;1.85;;;13.70;62.60;;;;;;5061097;28;20065;-63
2023/03/01 05:50:30;;;;;;;7.60;2.20;;;13.70;62.70;;;;;;5063041;28;20077;-65
2023/03/01 05:53:02;;;;;;;11.15;1.88;;;13.70;63.10;;;;;;5060258;28;20183;-65
2023/03/01 05:55:30;;;;;;;5.30;1.48;;;13.70;63.40;;;;;;5065955;28;20061;-65
2023/03/01 05:58:02;;;;;;;6.25;1.50;;;13.70;63.70;;;;;;5064366;28;20082;-63
2023/03/01 06:00:30;;;;;;;5.13;1.60;;;13.70;63.10;;;;;;5059044;28;20583;-59
2023/03/01 06:02:58;;;;;;;8.57;1.70;;;13.70;63.40;;;;;;5062090;28;20166;-63
2023/03/01 06:05:25;;;;;;;13.32;1.75;;;13.70;63.30;;;;;;5065880;28;20076;-64
2023/03/01 06:07:52;;;;;;;8.60;1.83;;;13.70;63.40;;;;;;5058654;28;20085;-63
2023/03/01 06:10:21;;;;;;;8.77;3.38;;;13.70;63.20;;;;;;5064260;28;20065;-63
2023/03/01 06:12:48;;;;;;;10.70;2.58;;;13.70;63.90;;;;;;5061111;28;20068;-64
2023/03/01 06:15:16;;;;;;;12.30;2.97;;;13.80;64.00;;;;;;5059995;28;20087;-64
2023/03/01 06:17:44;;;;;;;8.48;2.42;;;13.80;64.10;;;;;;5061075;28;20065;-64
2023/03/01 06:20:17;;;;;;;16.23;2.42;;;13.80;63.60;;;;;;5060265;28;20080;-64
2023/03/01 06:22:44;;;;;;;8.98;2.67;;;13.80;63.90;;;;;;5058051;28;20077;-64
2023/03/01 06:25:12;;;;;;;17.70;3.85;;;13.70;63.70;;;;;;5060720;28;20521;-64
2023/03/01 06:27:39;;;;;;;6.65;2.58;;;13.70;63.50;;;;;;5061810;28;20118;-64
2023/03/01 06:30:07;;;;;;;6.55;2.45;;;13.70;63.90;;;;;;5059676;28;20073;-65
2023/03/01 06:32:34;;;;;;;7.60;1.88;;;13.70;63.50;;;;;;5059819;28;20220;-64
2023/03/01 06:35:00;;;;;;;9.70;1.73;;;13.70;62.70;;;;;;5057716;28;20607;-64
2023/03/01 06:37:26;;;;;;;;;;;13.80;62.60;;;;;;5064793;28;20068;-63
2023/03/01 06:39:52;;;;;;;9.15;1.92;;;13.70;62.00;;;;;;5059913;28;20098;-64
2023/03/01 06:42:19;;;;;;;;;;;13.80;62.20;;;;;;5064726;28;20097;-66
2023/03/01 06:44:45;;;;;;;7.32;1.58;;;13.80;62.30;;;;;;5064347;28;19970;-65
2023/03/01 06:47:12;;;;;;;5.00;1.20;;;13.80;62.10;;;;;;5063378;28;20135;-63
2023/03/01 06:49:38;;;;;;;;;;;13.70;62.00;;;;;;5061097;28;20465;-65
2023/03/01 06:52:04;;;;;;;7.70;1.30;;;13.70;61.60;;;;;;5063447;28;20476;-66
2023/03/01 06:54:30;;;;;;;;;;;13.80;61.00;;;;;;5056847;28;20150;-64
2023/03/01 06:56:57;;;;;;;11.48;1.38;;;13.80;60.40;;;;;;5065158;28;20086;-63
2023/03/01 06:59:23;;;;;;;;;;;13.80;59.90;;;;;;5064719;28;20077;-63
2023/03/01 07:01:49;;;;;;;7.22;1.08;;;13.90;59.50;;;;;;5062104;28;20461;-64
2023/03/01 07:04:15;;;;;;;;;;;13.90;59.20;;;;;;5062611;28;20071;-65
2023/03/01 07:06:41;;;;;;;5.80;1.10;;;13.90;59.30;;;;;;5063025;28;19957;-66
2023/03/01 07:09:07;;;;;;;;;;;13.90;59.30;;;;;;5063858;28;20116;-64
2023/03/01 07:11:34;;;;;;;5.25;1.25;;;13.90;58.80;;;;;;5060669;28;20360;-65
2023/03/01 07:14:00;;;;;;;;;;;13.90;58.90;;;;;;5061257;28;20077;-65
2023/03/01 07:16:26;;;;;;;5.20;1.02;;;13.90;59.00;;;;;;5062251;28;19980;-65
2023/03/01 07:18:52;;;;;;;;;;;13.90;59.10;;;;;;5044182;28;20068;-64
2023/03/01 07:21:19;;;;;;;8.38;1.20;;;13.90;58.90;;;;;;5062080;28;19979;-64
2023/03/01 07:23:47;;;;;;;;;;;13.90;59.30;;;;;;5063270;28;20071;-64
2023/03/01 07:26:13;;;;;;;4.95;1.00;;;14.00;59.40;;;;;;5062512;28;20380;-64
2023/03/01 07:28:39;;;;;;;;;;;13.90;59.20;;;;;;5062834;28;20131;-66
2023/03/01 07:31:06;;;;;;;4.65;1.23;;;13.80;59.10;;;;;;5063535;28;20022;-64
2023/03/01 07:33:33;;;;;;;10.98;1.23;;;13.80;59.50;;;;;;5059904;28;20080;-65
2023/03/01 07:36:02;;;;;;;11.38;1.65;;;13.80;59.40;;;;;;5062579;28;20088;-63
2023/03/01 07:38:29;;;;;;;4.68;1.00;;;13.80;59.50;;;;;;5063521;28;20491;-64
2023/03/01 07:41:02;;;;;;;7.95;1.58;;;13.80;59.60;;;;;;5061340;28;20085;-64
2023/03/01 07:43:30;;;;;;;7.75;1.17;;;13.70;59.90;;;;;;5058463;28;20151;-64
2023/03/01 07:46:04;;;;;;;9.57;1.25;;;13.80;59.90;;;;;;5059777;28;20310;-65
2023/03/01 07:48:31;;;;;;;8.40;1.50;;;13.80;60.00;;;;;;5061151;28;20072;-66
2023/03/01 07:51:01;;;;;;;7.32;1.55;;;13.80;60.20;;;;;;5060218;28;20101;-66
2023/03/01 07:53:28;;;;;;;9.18;2.40;;;13.70;59.90;;;;;;5060698;28;20073;-66
2023/03/01 07:56:21;;;;;;;4.22;1.52;;;13.70;61.00;;;;;;5062057;28;20074;-66
2023/03/01 07:58:48;;;;;;;6.32;1.13;;;13.70;61.00;;;;;;5057829;28;20138;-66
2023/03/01 08:01:17;;;;;;;6.65;1.30;;;13.70;60.70;;;;;;5062670;28;20620;-66
2023/03/01 08:03:44;;;;;;;3.70;1.30;;;13.70;60.80;;;;;;5060679;28;20077;-65
2023/03/01 08:06:11;;;;;;;4.28;0.80;;;13.70;60.70;;;;;;5062524;28;20100;-66
2023/03/01 08:08:38;;;;;;;5.65;1.10;;;13.60;60.20;;;;;;5061576;28;20157;-67
2023/03/01 08:11:06;;;;;;;5.07;1.42;;;13.60;60.40;;;;;;5063877;28;20306;-65
2023/03/01 08:13:33;;;;;;;4.65;1.17;;;13.60;60.30;;;;;;5064792;28;20586;-64
2023/03/01 08:16:04;;;;;;;3.13;0.93;;;13.60;60.70;;;;;;5065056;28;20163;-64
2023/03/01 08:18:31;;;;;;;2.03;0.98;;;13.60;61.30;;;;;;5062720;28;20589;-66
2023/03/01 08:21:06;;;;;;;4.75;1.17;;;13.60;61.00;;;;;;5061514;28;20549;-67
2023/03/01 08:23:32;;;;;;;3.72;1.50;;;13.50;60.90;;;;;;5066587;28;20540;-65
2023/03/01 08:26:14;;;;;;;5.85;1.50;;;13.50;61.90;;;;;;5064490;28;20456;-66
2023/03/01 08:28:41;;;;;;;7.00;2.28;;;13.50;62.40;;;;;;5063901;28;20086;-66
2023/03/01 08:31:23;;;;;;;4.32;1.60;;;13.40;62.20;;;;;;5064512;28;20100;-66
2023/03/01 08:33:55;;;;;;;5.85;1.40;;;13.40;62.20;;;;;;5065403;28;20147;-66
2023/03/01 08:36:29;;;;;;;6.15;1.60;;;13.30;62.10;;;;;;5066521;28;20085;-66
2023/03/01 08:38:56;;;;;;;5.50;1.88;;;13.20;62.90;;;;;;5063783;28;20080;-65
2023/03/01 08:41:23;;;;;;;8.13;1.90;;;13.20;63.20;;;;;;5065148;28;20088;-65
2023/03/01 08:43:50;;;;;;;3.90;1.48;;;13.20;62.70;;;;;;5064453;28;20663;-65
2023/03/01 08:46:16;;;;;;;5.72;1.40;;;13.20;62.60;;;;;;5061142;28;20104;-65
2023/03/01 08:48:43;;;;;;;5.30;1.73;;;13.10;63.00;;;;;;5064799;28;20156;-65
2023/03/01 08:51:15;;;;;;;6.45;1.45;;;13.00;64.90;;;;;;5064916;28;20081;-65
2023/03/01 08:53:42;;;;;;;5.82;1.70;;;13.00;63.90;;;;;;5059127;28;20130;-66
2023/03/01 08:56:09;;;;;;;7.63;1.45;;;13.10;64.10;;;;;;5059503;28;20557;-66
2023/03/01 08:58:36;;;;;;;4.78;1.65;;;13.00;64.20;;;;;;5062733;28;20102;-67
2023/03/01 09:01:14;;;;;;;4.93;1.52;;;12.90;63.80;;;;;;5065653;28;20088;-64
2023/03/01 09:03:41;;;;;;;4.85;1.60;;;12.90;63.60;;;;;;5058164;28;20101;-66
2023/03/01 09:06:08;;;;;;;6.50;1.55;;;12.80;64.60;;;;;;5061313;28;20163;-66
2023/03/01 09:08:39;;;;;;;5.90;1.88;;;12.60;64.90;;;;;;5045660;28;20088;-65
2023/03/01 09:11:08;;;;;;;4.50;1.60;;;12.60;65.10;;;;;;5064065;28;20543;-65
2023/03/01 09:13:34;;;;;;;11.57;2.10;;;12.60;66.30;;;;;;5062933;28;20077;-66
2023/03/01 09:16:03;;;;;;;10.50;2.22;;;12.60;65.80;;;;;;5064518;28;20130;-65
2023/03/01 09:18:29;;;;;;;8.52;1.65;;;12.50;65.40;;;;;;5046244;28;20112;-64
2023/03/01 09:21:08;;;;;;;;;;;12.50;65.00;;;;;;5060240;28;20080;-64
2023/03/01 09:23:41;;;;;;;4.50;1.70;;;12.40;66.00;;;;;;5065306;28;19979;-64
2023/03/01 09:26:09;;;;;;;9.77;2.38;;;12.40;67.50;;;;;;5064758;28;20070;-66
2023/03/01 09:28:40;;;;;;;7.07;2.00;;;12.30;67.00;;;;;;5064176;28;20073;-65
2023/03/01 09:31:07;;;;;;;8.65;1.70;;;12.20;67.60;;;;;;5061567;28;20081;-64
2023/03/01 09:33:33;;;;;;;;;;;12.10;67.90;;;;;;5064123;28;20101;-64
2023/03/01 09:36:01;;;;;;;8.27;2.13;;;12.10;68.70;;;;;;5066032;28;19957;-65
2023/03/01 09:38:28;;;;;;;4.30;1.63;;;12.10;69.40;;;;;;5062879;28;20076;-62
2023/03/01 09:40:55;;;;;;;4.07;1.65;;;12.20;69.10;;;;;;5064578;28;20085;-66
2023/03/01 09:43:41;;;;;;;7.10;1.95;;;12.10;68.30;;;;;;5064420;28;20107;-65
2023/03/01 09:46:11;;;;;;;6.50;1.95;;;12.00;68.80;;;;;;5062307;28;20477;-64
2023/03/01 09:48:48;;;;;;;8.90;1.90;;;11.90;69.50;;;;;;5061957;28;20533;-65
2023/03/01 09:51:19;;;;;;;6.88;2.28;;;11.90;69.60;;;;;;5059111;28;20073;-65
2023/03/01 09:53:46;;;;;;;11.88;2.17;;;11.80;69.40;;;;;;5065839;28;20598;-65
2023/03/01 09:56:24;;;;;;;9.40;1.70;;;11.80;69.90;;;;;;5062939;28;20709;-66
2023/03/01 09:58:59;;;;;;;8.75;2.15;;;11.80;69.70;;;;;;5064581;28;20088;-64
2023/03/01 10:01:54;;;;;;;9.50;2.10;;;11.80;70.30;;;;;;5062332;28;20557;-64
2023/03/01 10:04:45;;;;;;;6.35;1.83;;;11.70;70.60;;;;;;5045850;28;20220;-65
2023/03/01 10:07:22;;;;;;;6.10;1.70;;;11.40;71.10;;;;;;5063110;28;20085;-65
2023/03/01 10:09:49;;;;;;;8.25;1.77;;;11.40;72.30;;;;;;5044039;28;20081;-67
2023/03/01 10:12:31;;;;;;;3.75;1.20;;;11.30;73.40;;;;;;5064246;28;20085;-63
2023/03/01 10:15:12;;;;;;;8.70;1.73;;;11.40;73.40;;;;;;5062952;28;20120;-65
2023/03/01 10:17:59;;;;;;;6.22;1.50;;;11.60;74.30;;;;;;5061570;28;20537;-64
2023/03/01 10:21:24;;;;;;;8.13;1.65;;;11.70;74.40;;;;;;5059128;28;20081;-66
2023/03/01 10:23:53;;;;;;;5.30;1.98;;;11.70;74.10;;;;;;4930531;29;20112;-66
2023/03/01 10:26:31;;;;;;;7.82;2.10;;;11.60;73.70;;;;;;4930576;29;20726;-64
2023/03/01 10:29:10;;;;;;;8.00;1.92;;;11.50;75.00;;;;;;4929571;29;20147;-66
2023/03/01 10:31:39;;;;;;;3.65;1.80;;;11.40;75.00;;;;;;4930238;29;20219;-66
2023/03/01 10:34:14;;;;;;;7.03;1.98;;;11.30;75.70;;;;;;4930681;29;20635;-66
2023/03/01 10:36:41;;;;;;;9.10;2.00;;;11.30;76.50;;;;;;4930266;29;20091;-66
2023/03/01 10:39:22;;;;;;;6.63;1.90;;;11.30;77.10;;;;;;4930647;29;20681;-64
2023/03/01 10:41:57;;;;;;;8.80;2.53;;;11.30;77.70;;;;;;4930422;29;20127;-64
2023/03/01 10:44:46;;;;;;;8.68;1.75;;;11.30;78.60;;;;;;4930312;29;20569;-64
2023/03/01 10:47:17;;;;;;;9.27;1.70;;;11.40;79.00;;;;;;4930743;29;20108;-65
2023/03/01 10:50:06;;;;;;;6.05;1.67;;;11.50;78.80;;;;;;4930825;29;20100;-65
2023/03/01 10:52:35;;;;;;;9.25;2.00;;;11.50;78.90;;;;;;4930422;29;20088;-64
2023/03/01 10:55:24;;;;;;;6.90;2.40;;;11.40;78.40;;;;;;4930049;29;20166;-65
2023/03/01 10:58:05;;;;;;;10.75;2.42;;;11.40;78.60;;;;;;4930355;29;20171;-64
2023/03/01 11:00:32;;;;;;;10.63;2.78;;;11.50;78.40;;;;;;5035538;28;20158;-65
2023/03/01 11:02:58;;;;;;;8.73;2.45;;;11.50;78.20;;;;;;5059936;28;20459;-65
2023/03/01 11:05:25;;;;;;;;;;;11.40;78.90;;;;;;5064774;28;20089;-66
2023/03/01 11:07:57;;;;;;;11.03;2.57;;;11.20;79.40;;;;;;5058389;28;20019;-64
2023/03/01 11:10:35;;;;;;;9.73;2.47;;;11.20;79.50;;;;;;5062026;28;20072;-64
2023/03/01 11:13:18;;;;;;;5.97;1.77;;;11.20;79.80;;;;;;5064607;28;20092;-65
2023/03/01 11:15:59;;;;;;;8.38;2.60;;;11.30;80.90;;;;;;5061086;28;20070;-65
2023/03/01 11:18:27;;;;;;;8.30;2.50;;;11.30;80.60;;;;;;5059195;28;20064;-67
2023/03/01 11:20:56;;;;;;;8.10;3.03;;;11.30;81.20;;;;;;5057446;28;20097;-67
2023/03/01 11:23:24;;;;;;;15.52;5.03;;;11.40;80.70;;;;;;5057975;28;20127;-66
2023/03/01 11:25:55;;;;;;;14.32;6.05;;;11.40;80.40;;;;;;5061697;28;20069;-66
2023/03/01 11:28:23;;;;;;;15.40;6.47;;;11.40;80.80;;;;;;5060306;28;20065;-66
2023/03/01 11:31:14;;;;;;;16.42;6.10;;;11.40;80.10;;;;;;5060930;28;20104;-66
2023/03/01 11:34:08;;;;;;;16.58;5.68;;;11.30;80.30;;;;;;5059018;28;20437;-67
2023/03/01 11:36:43;;;;;;;10.95;5.03;;;11.30;80.40;;;;;;5062149;28;20073;-65
2023/03/01 11:39:36;;;;;;;11.57;4.68;;;11.30;80.90;;;;;;5063808;28;20112;-64
2023/03/01 11:42:13;;;;;;;14.20;4.20;;;11.10;80.40;;;;;;5061654;28;20084;-65
2023/03/01 11:44:41;;;;;;;;;;;11.00;81.80;;;;;;5059187;28;20101;-64
2023/03/01 11:47:25;;;;;;;;;;;11.20;81.50;;;;;;5064855;28;20047;-64
2023/03/01 11:50:01;;;;;;;13.18;3.97;;;11.00;81.60;;;;;;5059546;28;19964;-64
2023/03/01 11:52:49;;;;;;;13.82;4.75;;;11.00;81.30;;;;;;5057223;28;20120;-65
2023/03/01 11:56:00;;;;;;;14.23;6.10;;;11.00;81.20;;;;;;5060270;28;20080;-64
2023/03/01 11:59:18;;;;;;;18.27;5.57;;;10.90;81.00;;;;;;5026672;28;20552;-66
2023/03/01 12:02:18;;;;;;;11.20;3.67;;;10.80;81.60;;;;;;5059589;28;20148;-64
2023/03/01 12:05:03;;;;;;;11.10;3.85;;;10.80;82.70;;;;;;5060809;28;20095;-65
2023/03/01 12:08:00;;;;;;;12.40;4.10;;;10.90;82.80;;;;;;5061561;28;20072;-65
2023/03/01 12:11:03;;;;;;;8.48;3.33;;;11.00;83.40;;;;;;5061650;28;20081;-65
2023/03/01 12:13:54;;;;;;;12.57;3.83;;;11.10;82.60;;;;;;5058893;28;20088;-65
2023/03/01 12:16:54;;;;;;;10.88;3.28;;;11.00;82.30;;;;;;5059404;28;20457;-65
2023/03/01 12:19:38;;;;;;;8.35;3.15;;;11.10;81.60;;;;;;4999002;28;20079;-65
2023/03/01 12:22:10;;;;;;;8.13;2.70;;;11.00;82.00;;;;;;5000430;28;20678;-65
2023/03/01 12:24:47;;;;;;;8.20;2.70;;;11.00;81.70;;;;;;5002364;28;20089;-66
2023/03/01 12:27:38;;;;;;;8.35;3.40;;;11.00;80.70;;;;;;4995878;28;20098;-65
2023/03/01 12:30:10;;;;;;;10.00;3.05;;;10.90;81.30;;;;;;4996028;28;20095;-65
2023/03/01 12:33:16;;;;;;;10.38;3.42;;;10.90;81.00;;;;;;4995420;28;20144;-66
2023/03/01 12:35:54;;;;;;;9.65;3.33;;;11.00;81.10;;;;;;4991070;28;20098;-64
2023/03/01 12:38:41;;;;;;;13.98;3.03;;;10.80;80.50;;;;;;5000573;28;20109;-65
2023/03/01 12:41:25;;;;;;;13.20;3.30;;;10.70;78.80;;;;;;5001148;28;20168;-65
2023/03/01 12:44:04;;;;;;;12.38;3.47;;;10.80;79.10;;;;;;4995638;28;20087;-65
2023/03/01 12:46:56;;;;;;;9.32;3.60;;;10.80;79.30;;;;;;4996176;28;20237;-65
2023/03/01 12:49:50;;;;;;;12.23;3.65;;;10.70;77.70;;;;;;4999915;28;20571;-66
2023/03/01 12:52:22;;;;;;;12.18;4.93;;;10.80;77.00;;;;;;4997484;28;20130;-65
2023/03/01 12:54:51;;;;;;;12.18;5.03;;;10.80;76.80;;;;;;4999582;28;20082;-65
2023/03/01 12:57:36;;;;;;;16.80;4.28;;;10.80;76.90;;;;;;5061647;28;20134;-66
2023/03/01 13:00:18;;;;;;;10.95;3.78;;;10.80;76.60;;;;;;5064732;28;20077;-64
2023/03/01 13:03:05;;;;;;;11.73;3.60;;;10.70;76.10;;;;;;5067024;28;20512;-66
2023/03/01 13:05:42;;;;;;;10.43;3.00;;;10.70;75.60;;;;;;5061072;28;20531;-67
2023/03/01 13:08:41;;;;;;;13.85;3.08;;;10.70;75.80;;;;;;5060445;28;20172;-66
2023/03/01 13:11:20;;;;;;;11.70;3.75;;;10.70;75.70;;;;;;5062038;28;20093;-65
2023/03/01 13:13:48;;;;;;;12.73;5.00;;;10.80;75.40;;;;;;5066417;28;20162;-66